Terminal Aerodrome Forecast
Issued by NWS

Home | Current Version | Previous Version | Text Only | Print | Product List | Glossary On
Versions: 1 2 3 4 5 6 7 8 9 10 11 12 13 14 15 16
000
FTAK31 PAFA 292352
TAFATA
TAF
PATA 292352Z 3000/3024 10008KT P6SM VCSH SCT040 BKN080
     FM300400 11005KT P6SM -SHRA BKN040
     FM301400 VRB03KT P6SM VCFG SCT040
     FM302000 10012KT P6SM SCT040 BKN200=

USA.gov is the U.S. government's official web portal to all federal, state and local government web resources and services.